sensor_id;sensor_type;location;lat;lon;timestamp;P1;durP1;ratioP1;P2;durP2;ratioP2
18917;SDS011;9591;52.742;13.650;2023-12-07T00:01:58;52.23;;;17.37;;
18917;SDS011;9591;52.742;13.650;2023-12-07T00:04:44;46.67;;;17.57;;
18917;SDS011;9591;52.742;13.650;2023-12-07T00:07:31;47.13;;;16.00;;
18917;SDS011;9591;52.742;13.650;2023-12-07T00:10:18;57.00;;;17.07;;
18917;SDS011;9591;52.742;13.650;2023-12-07T00:13:05;50.73;;;16.87;;
18917;SDS011;9591;52.742;13.650;2023-12-07T00:15:52;44.53;;;17.33;;
18917;SDS011;9591;52.742;13.650;2023-12-07T00:18:40;51.87;;;17.30;;
18917;SDS011;9591;52.742;13.650;2023-12-07T00:21:26;49.27;;;15.83;;
18917;SDS011;9591;52.742;13.650;2023-12-07T00:24:13;48.47;;;17.80;;
18917;SDS011;9591;52.742;13.650;2023-12-07T00:27:00;44.93;;;17.57;;
18917;SDS011;9591;52.742;13.650;2023-12-07T00:29:48;43.50;;;17.03;;
18917;SDS011;9591;52.742;13.650;2023-12-07T00:32:36;48.73;;;16.57;;
18917;SDS011;9591;52.742;13.650;2023-12-07T00:35:24;48.13;;;17.20;;
18917;SDS011;9591;52.742;13.650;2023-12-07T00:38:14;43.07;;;15.13;;
18917;SDS011;9591;52.742;13.650;2023-12-07T00:41:00;41.17;;;15.83;;
18917;SDS011;9591;52.742;13.650;2023-12-07T00:43:47;44.27;;;16.10;;
18917;SDS011;9591;52.742;13.650;2023-12-07T00:46:34;41.40;;;14.97;;
18917;SDS011;9591;52.742;13.650;2023-12-07T00:49:21;42.50;;;15.10;;
18917;SDS011;9591;52.742;13.650;2023-12-07T00:52:09;42.57;;;14.90;;
18917;SDS011;9591;52.742;13.650;2023-12-07T00:54:56;40.93;;;14.20;;
18917;SDS011;9591;52.742;13.650;2023-12-07T00:57:56;36.77;;;13.50;;
18917;SDS011;9591;52.742;13.650;2023-12-07T01:00:43;40.60;;;13.53;;
18917;SDS011;9591;52.742;13.650;2023-12-07T01:03:30;39.30;;;14.57;;
18917;SDS011;9591;52.742;13.650;2023-12-07T01:06:16;33.60;;;13.57;;
18917;SDS011;9591;52.742;13.650;2023-12-07T01:09:04;31.30;;;12.07;;
18917;SDS011;9591;52.742;13.650;2023-12-07T01:11:51;32.97;;;11.80;;
18917;SDS011;9591;52.742;13.650;2023-12-07T01:14:38;34.87;;;14.20;;
18917;SDS011;9591;52.742;13.650;2023-12-07T01:17:25;31.70;;;12.37;;
18917;SDS011;9591;52.742;13.650;2023-12-07T01:20:12;31.63;;;12.30;;
18917;SDS011;9591;52.742;13.650;2023-12-07T01:22:59;34.70;;;13.87;;
18917;SDS011;9591;52.742;13.650;2023-12-07T01:25:47;29.40;;;12.53;;
18917;SDS011;9591;52.742;13.650;2023-12-07T01:28:34;34.67;;;12.93;;
18917;SDS011;9591;52.742;13.650;2023-12-07T01:31:21;35.10;;;13.50;;
18917;SDS011;9591;52.742;13.650;2023-12-07T01:34:08;27.03;;;11.23;;
18917;SDS011;9591;52.742;13.650;2023-12-07T01:36:54;33.57;;;11.67;;
18917;SDS011;9591;52.742;13.650;2023-12-07T01:39:42;28.63;;;11.77;;
18917;SDS011;9591;52.742;13.650;2023-12-07T01:42:31;32.87;;;11.70;;
18917;SDS011;9591;52.742;13.650;2023-12-07T01:45:19;29.43;;;11.17;;
18917;SDS011;9591;52.742;13.650;2023-12-07T01:48:06;31.43;;;12.90;;
18917;SDS011;9591;52.742;13.650;2023-12-07T01:50:53;27.83;;;12.80;;
18917;SDS011;9591;52.742;13.650;2023-12-07T01:53:45;29.43;;;12.30;;
18917;SDS011;9591;52.742;13.650;2023-12-07T01:56:34;28.37;;;12.27;;
18917;SDS011;9591;52.742;13.650;2023-12-07T01:59:23;32.20;;;12.87;;
18917;SDS011;9591;52.742;13.650;2023-12-07T02:02:10;27.30;;;12.37;;
18917;SDS011;9591;52.742;13.650;2023-12-07T02:04:57;29.83;;;11.70;;
18917;SDS011;9591;52.742;13.650;2023-12-07T02:07:44;35.23;;;12.47;;
18917;SDS011;9591;52.742;13.650;2023-12-07T02:10:31;33.33;;;12.77;;
18917;SDS011;9591;52.742;13.650;2023-12-07T02:13:17;35.37;;;12.43;;
18917;SDS011;9591;52.742;13.650;2023-12-07T02:16:07;28.83;;;11.50;;
18917;SDS011;9591;52.742;13.650;2023-12-07T02:19:02;36.20;;;12.53;;
18917;SDS011;9591;52.742;13.650;2023-12-07T02:22:01;30.67;;;12.73;;
18917;SDS011;9591;52.742;13.650;2023-12-07T02:24:59;27.50;;;13.00;;
18917;SDS011;9591;52.742;13.650;2023-12-07T02:27:52;30.80;;;10.73;;
18917;SDS011;9591;52.742;13.650;2023-12-07T02:30:39;26.00;;;11.87;;
18917;SDS011;9591;52.742;13.650;2023-12-07T02:33:26;33.53;;;13.90;;
18917;SDS011;9591;52.742;13.650;2023-12-07T02:36:15;29.43;;;11.97;;
18917;SDS011;9591;52.742;13.650;2023-12-07T02:39:08;28.93;;;12.47;;
18917;SDS011;9591;52.742;13.650;2023-12-07T02:41:58;31.33;;;12.97;;
18917;SDS011;9591;52.742;13.650;2023-12-07T02:44:51;31.93;;;12.90;;
18917;SDS011;9591;52.742;13.650;2023-12-07T02:47:39;33.67;;;13.17;;
18917;SDS011;9591;52.742;13.650;2023-12-07T02:50:29;31.83;;;11.50;;
18917;SDS011;9591;52.742;13.650;2023-12-07T02:53:22;29.60;;;11.57;;
18917;SDS011;9591;52.742;13.650;2023-12-07T02:56:09;24.23;;;11.20;;
18917;SDS011;9591;52.742;13.650;2023-12-07T02:58:56;26.73;;;10.80;;
18917;SDS011;9591;52.742;13.650;2023-12-07T03:01:44;28.23;;;12.27;;
18917;SDS011;9591;52.742;13.650;2023-12-07T03:04:31;29.93;;;11.57;;
18917;SDS011;9591;52.742;13.650;2023-12-07T03:07:18;32.07;;;11.77;;
18917;SDS011;9591;52.742;13.650;2023-12-07T03:10:05;24.83;;;11.63;;
18917;SDS011;9591;52.742;13.650;2023-12-07T03:12:52;26.77;;;11.30;;
18917;SDS011;9591;52.742;13.650;2023-12-07T03:15:39;27.83;;;12.03;;
18917;SDS011;9591;52.742;13.650;2023-12-07T03:18:27;26.50;;;11.83;;
18917;SDS011;9591;52.742;13.650;2023-12-07T03:21:14;29.53;;;11.87;;
18917;SDS011;9591;52.742;13.650;2023-12-07T03:24:01;28.23;;;12.03;;
18917;SDS011;9591;52.742;13.650;2023-12-07T03:26:48;34.30;;;12.43;;
18917;SDS011;9591;52.742;13.650;2023-12-07T03:29:35;31.03;;;12.37;;
18917;SDS011;9591;52.742;13.650;2023-12-07T03:32:22;28.30;;;11.93;;
18917;SDS011;9591;52.742;13.650;2023-12-07T03:35:10;30.90;;;13.00;;
18917;SDS011;9591;52.742;13.650;2023-12-07T03:37:57;26.60;;;10.93;;
18917;SDS011;9591;52.742;13.650;2023-12-07T03:40:44;30.57;;;12.53;;
18917;SDS011;9591;52.742;13.650;2023-12-07T03:43:33;28.67;;;12.00;;
18917;SDS011;9591;52.742;13.650;2023-12-07T03:46:20;23.83;;;11.07;;
18917;SDS011;9591;52.742;13.650;2023-12-07T03:49:07;29.33;;;11.00;;
18917;SDS011;9591;52.742;13.650;2023-12-07T03:51:55;27.10;;;10.43;;
18917;SDS011;9591;52.742;13.650;2023-12-07T03:54:42;30.67;;;12.63;;
18917;SDS011;9591;52.742;13.650;2023-12-07T03:57:29;27.23;;;11.50;;
18917;SDS011;9591;52.742;13.650;2023-12-07T04:00:16;28.53;;;12.27;;
18917;SDS011;9591;52.742;13.650;2023-12-07T04:03:03;26.17;;;12.20;;
18917;SDS011;9591;52.742;13.650;2023-12-07T04:05:50;33.10;;;11.43;;
18917;SDS011;9591;52.742;13.650;2023-12-07T04:08:38;26.63;;;11.80;;
18917;SDS011;9591;52.742;13.650;2023-12-07T04:11:25;28.20;;;12.40;;
18917;SDS011;9591;52.742;13.650;2023-12-07T04:14:12;28.33;;;12.20;;
18917;SDS011;9591;52.742;13.650;2023-12-07T04:16:59;26.93;;;11.57;;
18917;SDS011;9591;52.742;13.650;2023-12-07T04:19:46;27.70;;;12.33;;
18917;SDS011;9591;52.742;13.650;2023-12-07T04:22:32;27.47;;;12.17;;
18917;SDS011;9591;52.742;13.650;2023-12-07T04:25:21;23.10;;;11.43;;
18917;SDS011;9591;52.742;13.650;2023-12-07T04:28:08;25.57;;;11.63;;
18917;SDS011;9591;52.742;13.650;2023-12-07T04:30:55;28.67;;;12.07;;
18917;SDS011;9591;52.742;13.650;2023-12-07T04:33:41;29.20;;;11.17;;
18917;SDS011;9591;52.742;13.650;2023-12-07T04:36:28;29.97;;;11.87;;
18917;SDS011;9591;52.742;13.650;2023-12-07T04:39:15;32.03;;;12.43;;
18917;SDS011;9591;52.742;13.650;2023-12-07T04:42:04;31.57;;;12.10;;
18917;SDS011;9591;52.742;13.650;2023-12-07T04:44:51;26.73;;;12.73;;
18917;SDS011;9591;52.742;13.650;2023-12-07T04:47:38;26.97;;;12.50;;
18917;SDS011;9591;52.742;13.650;2023-12-07T04:50:25;29.70;;;13.20;;
18917;SDS011;9591;52.742;13.650;2023-12-07T04:53:11;26.93;;;11.93;;
18917;SDS011;9591;52.742;13.650;2023-12-07T04:55:59;31.70;;;12.13;;
18917;SDS011;9591;52.742;13.650;2023-12-07T04:58:47;27.53;;;11.93;;
18917;SDS011;9591;52.742;13.650;2023-12-07T05:01:34;30.10;;;12.87;;
18917;SDS011;9591;52.742;13.650;2023-12-07T05:04:21;27.93;;;12.07;;
18917;SDS011;9591;52.742;13.650;2023-12-07T05:07:07;27.60;;;12.67;;
18917;SDS011;9591;52.742;13.650;2023-12-07T05:09:55;30.73;;;12.10;;
18917;SDS011;9591;52.742;13.650;2023-12-07T05:12:42;28.43;;;12.53;;
18917;SDS011;9591;52.742;13.650;2023-12-07T05:15:30;36.00;;;12.43;;
18917;SDS011;9591;52.742;13.650;2023-12-07T05:18:16;32.43;;;12.63;;
18917;SDS011;9591;52.742;13.650;2023-12-07T05:21:03;34.10;;;13.30;;
18917;SDS011;9591;52.742;13.650;2023-12-07T05:23:51;32.13;;;12.07;;
18917;SDS011;9591;52.742;13.650;2023-12-07T05:26:38;33.47;;;12.00;;
18917;SDS011;9591;52.742;13.650;2023-12-07T05:29:27;29.77;;;12.60;;
18917;SDS011;9591;52.742;13.650;2023-12-07T05:32:15;32.93;;;11.63;;
18917;SDS011;9591;52.742;13.650;2023-12-07T05:35:03;33.87;;;12.13;;
18917;SDS011;9591;52.742;13.650;2023-12-07T05:37:51;28.80;;;12.83;;
18917;SDS011;9591;52.742;13.650;2023-12-07T05:40:38;32.00;;;12.23;;
18917;SDS011;9591;52.742;13.650;2023-12-07T05:43:25;34.13;;;12.17;;
18917;SDS011;9591;52.742;13.650;2023-12-07T05:46:12;29.57;;;11.43;;
18917;SDS011;9591;52.742;13.650;2023-12-07T05:49:00;36.20;;;13.03;;
18917;SDS011;9591;52.742;13.650;2023-12-07T05:51:47;31.03;;;11.27;;
18917;SDS011;9591;52.742;13.650;2023-12-07T05:54:34;33.77;;;12.77;;
18917;SDS011;9591;52.742;13.650;2023-12-07T05:57:21;29.23;;;12.13;;
18917;SDS011;9591;52.742;13.650;2023-12-07T06:00:08;45.53;;;15.13;;
18917;SDS011;9591;52.742;13.650;2023-12-07T06:02:58;36.90;;;12.77;;
18917;SDS011;9591;52.742;13.650;2023-12-07T06:05:47;39.43;;;13.73;;
18917;SDS011;9591;52.742;13.650;2023-12-07T06:08:34;49.17;;;15.30;;
18917;SDS011;9591;52.742;13.650;2023-12-07T06:11:21;51.13;;;15.00;;
18917;SDS011;9591;52.742;13.650;2023-12-07T06:14:08;39.13;;;14.00;;
18917;SDS011;9591;52.742;13.650;2023-12-07T06:16:55;41.87;;;14.87;;
18917;SDS011;9591;52.742;13.650;2023-12-07T06:19:42;39.50;;;14.37;;
18917;SDS011;9591;52.742;13.650;2023-12-07T06:22:30;46.13;;;13.47;;
18917;SDS011;9591;52.742;13.650;2023-12-07T06:25:17;36.47;;;12.20;;
18917;SDS011;9591;52.742;13.650;2023-12-07T06:28:04;40.73;;;12.63;;
18917;SDS011;9591;52.742;13.650;2023-12-07T06:30:51;39.50;;;12.93;;
18917;SDS011;9591;52.742;13.650;2023-12-07T06:33:38;40.23;;;13.33;;
18917;SDS011;9591;52.742;13.650;2023-12-07T06:36:26;41.00;;;13.27;;
18917;SDS011;9591;52.742;13.650;2023-12-07T06:39:14;35.77;;;12.87;;
18917;SDS011;9591;52.742;13.650;2023-12-07T06:42:01;32.17;;;11.70;;
18917;SDS011;9591;52.742;13.650;2023-12-07T06:44:48;41.60;;;13.87;;
18917;SDS011;9591;52.742;13.650;2023-12-07T06:47:37;39.70;;;13.90;;
18917;SDS011;9591;52.742;13.650;2023-12-07T06:50:26;45.53;;;13.70;;
18917;SDS011;9591;52.742;13.650;2023-12-07T06:53:14;35.60;;;13.57;;
18917;SDS011;9591;52.742;13.650;2023-12-07T06:56:06;38.53;;;13.40;;
18917;SDS011;9591;52.742;13.650;2023-12-07T06:58:55;38.93;;;13.73;;
18917;SDS011;9591;52.742;13.650;2023-12-07T07:01:41;33.40;;;12.67;;
18917;SDS011;9591;52.742;13.650;2023-12-07T07:04:28;39.67;;;12.10;;
18917;SDS011;9591;52.742;13.650;2023-12-07T07:07:16;40.77;;;13.00;;
18917;SDS011;9591;52.742;13.650;2023-12-07T07:10:03;52.47;;;13.53;;
18917;SDS011;9591;52.742;13.650;2023-12-07T07:12:52;47.03;;;14.13;;
18917;SDS011;9591;52.742;13.650;2023-12-07T07:15:39;44.50;;;12.77;;
18917;SDS011;9591;52.742;13.650;2023-12-07T07:18:28;41.30;;;13.13;;
18917;SDS011;9591;52.742;13.650;2023-12-07T07:21:15;48.67;;;13.07;;
18917;SDS011;9591;52.742;13.650;2023-12-07T07:24:02;36.97;;;12.93;;
18917;SDS011;9591;52.742;13.650;2023-12-07T07:26:51;41.97;;;13.43;;
18917;SDS011;9591;52.742;13.650;2023-12-07T07:29:39;45.73;;;13.97;;
18917;SDS011;9591;52.742;13.650;2023-12-07T07:32:26;54.33;;;15.37;;
18917;SDS011;9591;52.742;13.650;2023-12-07T07:35:13;47.00;;;14.07;;
18917;SDS011;9591;52.742;13.650;2023-12-07T07:38:00;46.13;;;13.40;;
18917;SDS011;9591;52.742;13.650;2023-12-07T07:40:47;51.97;;;14.37;;
18917;SDS011;9591;52.742;13.650;2023-12-07T07:43:34;37.23;;;12.83;;
18917;SDS011;9591;52.742;13.650;2023-12-07T07:46:22;45.43;;;13.30;;
18917;SDS011;9591;52.742;13.650;2023-12-07T07:49:09;46.90;;;13.17;;
18917;SDS011;9591;52.742;13.650;2023-12-07T07:51:56;44.43;;;14.30;;
18917;SDS011;9591;52.742;13.650;2023-12-07T07:54:43;41.77;;;13.83;;
18917;SDS011;9591;52.742;13.650;2023-12-07T07:57:30;42.47;;;12.57;;
18917;SDS011;9591;52.742;13.650;2023-12-07T08:00:17;42.53;;;12.13;;
18917;SDS011;9591;52.742;13.650;2023-12-07T08:03:05;41.03;;;13.80;;
18917;SDS011;9591;52.742;13.650;2023-12-07T08:05:52;45.40;;;13.53;;
18917;SDS011;9591;52.742;13.650;2023-12-07T08:08:39;39.17;;;12.37;;
18917;SDS011;9591;52.742;13.650;2023-12-07T08:11:25;39.40;;;12.07;;
18917;SDS011;9591;52.742;13.650;2023-12-07T08:14:12;45.77;;;14.97;;
18917;SDS011;9591;52.742;13.650;2023-12-07T08:16:59;45.27;;;13.83;;
18917;SDS011;9591;52.742;13.650;2023-12-07T08:19:48;44.43;;;13.17;;
18917;SDS011;9591;52.742;13.650;2023-12-07T08:22:34;53.23;;;14.07;;
18917;SDS011;9591;52.742;13.650;2023-12-07T08:25:21;40.23;;;13.47;;
18917;SDS011;9591;52.742;13.650;2023-12-07T08:28:08;44.63;;;14.13;;
18917;SDS011;9591;52.742;13.650;2023-12-07T08:30:56;42.03;;;12.87;;
18917;SDS011;9591;52.742;13.650;2023-12-07T08:33:43;43.80;;;13.27;;
18917;SDS011;9591;52.742;13.650;2023-12-07T08:36:31;43.43;;;13.80;;
18917;SDS011;9591;52.742;13.650;2023-12-07T08:39:18;46.23;;;14.03;;
18917;SDS011;9591;52.742;13.650;2023-12-07T08:42:05;38.27;;;11.60;;
18917;SDS011;9591;52.742;13.650;2023-12-07T08:44:52;47.37;;;12.40;;
18917;SDS011;9591;52.742;13.650;2023-12-07T08:47:39;42.90;;;12.77;;
18917;SDS011;9591;52.742;13.650;2023-12-07T08:50:26;46.70;;;13.77;;
18917;SDS011;9591;52.742;13.650;2023-12-07T08:53:15;35.17;;;11.00;;
18917;SDS011;9591;52.742;13.650;2023-12-07T08:56:04;40.13;;;12.10;;
18917;SDS011;9591;52.742;13.650;2023-12-07T08:58:54;48.80;;;13.80;;
18917;SDS011;9591;52.742;13.650;2023-12-07T09:01:43;43.77;;;12.93;;
18917;SDS011;9591;52.742;13.650;2023-12-07T09:04:31;43.20;;;12.83;;
18917;SDS011;9591;52.742;13.650;2023-12-07T09:07:18;42.20;;;14.33;;
18917;SDS011;9591;52.742;13.650;2023-12-07T09:10:07;37.03;;;13.40;;
18917;SDS011;9591;52.742;13.650;2023-12-07T09:12:55;39.23;;;12.73;;
18917;SDS011;9591;52.742;13.650;2023-12-07T09:15:42;40.40;;;13.67;;
18917;SDS011;9591;52.742;13.650;2023-12-07T09:18:29;43.70;;;13.33;;
18917;SDS011;9591;52.742;13.650;2023-12-07T09:21:16;34.00;;;12.60;;
18917;SDS011;9591;52.742;13.650;2023-12-07T09:24:03;42.53;;;14.10;;
18917;SDS011;9591;52.742;13.650;2023-12-07T09:26:52;35.57;;;12.37;;
18917;SDS011;9591;52.742;13.650;2023-12-07T09:29:40;32.67;;;11.80;;
18917;SDS011;9591;52.742;13.650;2023-12-07T09:32:26;33.60;;;11.90;;
18917;SDS011;9591;52.742;13.650;2023-12-07T09:35:20;44.63;;;12.47;;
18917;SDS011;9591;52.742;13.650;2023-12-07T09:38:07;37.10;;;12.43;;
18917;SDS011;9591;52.742;13.650;2023-12-07T09:40:55;35.17;;;12.57;;
18917;SDS011;9591;52.742;13.650;2023-12-07T09:43:43;34.00;;;11.73;;
18917;SDS011;9591;52.742;13.650;2023-12-07T09:46:30;35.40;;;12.53;;
18917;SDS011;9591;52.742;13.650;2023-12-07T09:49:18;38.57;;;12.37;;
18917;SDS011;9591;52.742;13.650;2023-12-07T09:52:05;32.67;;;11.53;;
18917;SDS011;9591;52.742;13.650;2023-12-07T09:54:53;33.30;;;10.43;;
18917;SDS011;9591;52.742;13.650;2023-12-07T09:57:43;31.80;;;11.97;;
18917;SDS011;9591;52.742;13.650;2023-12-07T10:00:31;34.07;;;10.27;;
18917;SDS011;9591;52.742;13.650;2023-12-07T10:03:21;35.63;;;12.47;;
18917;SDS011;9591;52.742;13.650;2023-12-07T10:06:09;37.87;;;12.57;;
18917;SDS011;9591;52.742;13.650;2023-12-07T10:08:56;26.43;;;11.37;;
18917;SDS011;9591;52.742;13.650;2023-12-07T10:11:57;38.07;;;12.50;;
18917;SDS011;9591;52.742;13.650;2023-12-07T10:14:48;39.23;;;13.57;;
18917;SDS011;9591;52.742;13.650;2023-12-07T10:17:47;38.40;;;11.23;;
18917;SDS011;9591;52.742;13.650;2023-12-07T10:20:35;36.40;;;12.73;;
18917;SDS011;9591;52.742;13.650;2023-12-07T10:23:22;22.63;;;10.27;;
18917;SDS011;9591;52.742;13.650;2023-12-07T10:26:10;37.67;;;11.77;;
18917;SDS011;9591;52.742;13.650;2023-12-07T10:28:57;31.87;;;12.57;;
18917;SDS011;9591;52.742;13.650;2023-12-07T10:31:44;34.17;;;12.13;;
18917;SDS011;9591;52.742;13.650;2023-12-07T10:34:34;34.30;;;12.03;;
18917;SDS011;9591;52.742;13.650;2023-12-07T10:37:21;32.07;;;11.43;;
18917;SDS011;9591;52.742;13.650;2023-12-07T10:40:08;30.70;;;11.00;;
18917;SDS011;9591;52.742;13.650;2023-12-07T10:42:57;35.37;;;12.23;;
18917;SDS011;9591;52.742;13.650;2023-12-07T10:45:46;32.00;;;11.30;;
18917;SDS011;9591;52.742;13.650;2023-12-07T10:48:33;32.93;;;10.90;;
18917;SDS011;9591;52.742;13.650;2023-12-07T10:51:26;33.63;;;10.87;;
18917;SDS011;9591;52.742;13.650;2023-12-07T10:54:18;34.13;;;11.77;;
18917;SDS011;9591;52.742;13.650;2023-12-07T10:57:09;35.17;;;11.50;;
18917;SDS011;9591;52.742;13.650;2023-12-07T10:59:59;34.90;;;11.43;;
18917;SDS011;9591;52.742;13.650;2023-12-07T11:02:46;33.73;;;12.57;;
18917;SDS011;9591;52.742;13.650;2023-12-07T11:05:34;34.13;;;11.70;;
18917;SDS011;9591;52.742;13.650;2023-12-07T11:08:24;38.63;;;12.47;;
18917;SDS011;9591;52.742;13.650;2023-12-07T11:11:20;28.80;;;10.47;;
18917;SDS011;9591;52.742;13.650;2023-12-07T11:14:11;34.80;;;11.17;;
18917;SDS011;9591;52.742;13.650;2023-12-07T11:16:59;41.87;;;13.53;;
18917;SDS011;9591;52.742;13.650;2023-12-07T11:19:46;33.87;;;12.07;;
18917;SDS011;9591;52.742;13.650;2023-12-07T11:22:33;42.57;;;13.13;;
18917;SDS011;9591;52.742;13.650;2023-12-07T11:25:21;33.77;;;12.30;;
18917;SDS011;9591;52.742;13.650;2023-12-07T11:28:10;32.97;;;11.60;;
18917;SDS011;9591;52.742;13.650;2023-12-07T11:30:57;37.60;;;12.63;;
18917;SDS011;9591;52.742;13.650;2023-12-07T11:33:44;45.07;;;12.40;;
18917;SDS011;9591;52.742;13.650;2023-12-07T11:36:32;34.07;;;11.83;;
18917;SDS011;9591;52.742;13.650;2023-12-07T11:39:19;30.07;;;11.17;;
18917;SDS011;9591;52.742;13.650;2023-12-07T11:42:17;32.27;;;12.13;;
18917;SDS011;9591;52.742;13.650;2023-12-07T11:45:11;29.77;;;11.07;;
18917;SDS011;9591;52.742;13.650;2023-12-07T11:48:06;30.43;;;11.77;;
18917;SDS011;9591;52.742;13.650;2023-12-07T11:51:04;29.50;;;11.97;;
18917;SDS011;9591;52.742;13.650;2023-12-07T11:53:54;34.37;;;11.93;;
18917;SDS011;9591;52.742;13.650;2023-12-07T11:56:41;32.57;;;11.70;;
18917;SDS011;9591;52.742;13.650;2023-12-07T11:59:32;39.50;;;11.73;;
18917;SDS011;9591;52.742;13.650;2023-12-07T12:02:21;36.40;;;13.13;;
18917;SDS011;9591;52.742;13.650;2023-12-07T12:05:22;34.70;;;12.50;;
18917;SDS011;9591;52.742;13.650;2023-12-07T12:08:11;27.03;;;11.43;;
18917;SDS011;9591;52.742;13.650;2023-12-07T12:11:00;30.67;;;11.57;;
18917;SDS011;9591;52.742;13.650;2023-12-07T12:13:50;31.80;;;11.93;;
18917;SDS011;9591;52.742;13.650;2023-12-07T12:16:46;27.27;;;11.33;;
18917;SDS011;9591;52.742;13.650;2023-12-07T12:19:44;32.20;;;11.37;;
18917;SDS011;9591;52.742;13.650;2023-12-07T12:22:44;33.37;;;13.37;;
18917;SDS011;9591;52.742;13.650;2023-12-07T12:25:32;29.13;;;11.47;;
18917;SDS011;9591;52.742;13.650;2023-12-07T12:28:23;29.87;;;10.87;;
18917;SDS011;9591;52.742;13.650;2023-12-07T12:31:12;25.33;;;10.77;;
18917;SDS011;9591;52.742;13.650;2023-12-07T12:34:02;30.10;;;10.63;;
18917;SDS011;9591;52.742;13.650;2023-12-07T12:36:55;28.40;;;11.37;;
18917;SDS011;9591;52.742;13.650;2023-12-07T12:39:46;35.33;;;12.13;;
18917;SDS011;9591;52.742;13.650;2023-12-07T12:42:34;32.40;;;11.90;;
18917;SDS011;9591;52.742;13.650;2023-12-07T12:45:23;27.13;;;10.77;;
18917;SDS011;9591;52.742;13.650;2023-12-07T12:48:11;27.63;;;10.67;;
18917;SDS011;9591;52.742;13.650;2023-12-07T12:51:03;32.80;;;11.77;;
18917;SDS011;9591;52.742;13.650;2023-12-07T12:53:58;25.13;;;10.57;;
18917;SDS011;9591;52.742;13.650;2023-12-07T12:56:53;29.17;;;11.10;;
18917;SDS011;9591;52.742;13.650;2023-12-07T12:59:42;23.53;;;10.17;;
18917;SDS011;9591;52.742;13.650;2023-12-07T13:02:31;28.93;;;10.87;;
18917;SDS011;9591;52.742;13.650;2023-12-07T13:05:19;27.53;;;10.27;;
18917;SDS011;9591;52.742;13.650;2023-12-07T13:08:08;24.57;;;9.60;;
18917;SDS011;9591;52.742;13.650;2023-12-07T13:10:59;27.70;;;10.03;;
18917;SDS011;9591;52.742;13.650;2023-12-07T13:13:46;31.87;;;11.43;;
18917;SDS011;9591;52.742;13.650;2023-12-07T13:16:35;31.30;;;12.23;;
18917;SDS011;9591;52.742;13.650;2023-12-07T13:19:23;35.90;;;13.27;;
18917;SDS011;9591;52.742;13.650;2023-12-07T13:22:10;27.90;;;10.83;;
18917;SDS011;9591;52.742;13.650;2023-12-07T13:24:58;27.53;;;10.63;;
18917;SDS011;9591;52.742;13.650;2023-12-07T13:27:45;29.00;;;10.53;;
18917;SDS011;9591;52.742;13.650;2023-12-07T13:30:32;30.20;;;10.83;;
18917;SDS011;9591;52.742;13.650;2023-12-07T13:33:20;29.20;;;11.80;;
18917;SDS011;9591;52.742;13.650;2023-12-07T13:36:14;30.40;;;11.10;;
18917;SDS011;9591;52.742;13.650;2023-12-07T13:39:03;25.87;;;11.13;;
18917;SDS011;9591;52.742;13.650;2023-12-07T13:41:54;29.53;;;11.07;;
18917;SDS011;9591;52.742;13.650;2023-12-07T13:44:41;34.63;;;12.80;;
18917;SDS011;9591;52.742;13.650;2023-12-07T13:47:28;28.90;;;10.80;;
18917;SDS011;9591;52.742;13.650;2023-12-07T13:50:16;28.63;;;11.83;;
18917;SDS011;9591;52.742;13.650;2023-12-07T13:53:03;24.67;;;10.10;;
18917;SDS011;9591;52.742;13.650;2023-12-07T13:55:50;33.07;;;11.97;;
18917;SDS011;9591;52.742;13.650;2023-12-07T13:58:39;25.60;;;10.27;;
18917;SDS011;9591;52.742;13.650;2023-12-07T14:01:25;29.57;;;11.23;;
18917;SDS011;9591;52.742;13.650;2023-12-07T14:04:12;27.40;;;9.97;;
18917;SDS011;9591;52.742;13.650;2023-12-07T14:07:13;29.93;;;10.47;;
18917;SDS011;9591;52.742;13.650;2023-12-07T14:10:01;27.63;;;10.83;;
18917;SDS011;9591;52.742;13.650;2023-12-07T14:12:48;32.47;;;11.87;;
18917;SDS011;9591;52.742;13.650;2023-12-07T14:15:37;30.10;;;9.97;;
18917;SDS011;9591;52.742;13.650;2023-12-07T14:18:29;26.63;;;10.70;;
18917;SDS011;9591;52.742;13.650;2023-12-07T14:21:18;25.17;;;10.13;;
18917;SDS011;9591;52.742;13.650;2023-12-07T14:24:18;26.73;;;10.73;;
18917;SDS011;9591;52.742;13.650;2023-12-07T14:27:05;34.03;;;12.20;;
18917;SDS011;9591;52.742;13.650;2023-12-07T14:29:53;31.73;;;11.07;;
18917;SDS011;9591;52.742;13.650;2023-12-07T14:32:42;27.83;;;10.77;;
18917;SDS011;9591;52.742;13.650;2023-12-07T14:35:33;28.13;;;10.90;;
18917;SDS011;9591;52.742;13.650;2023-12-07T14:38:20;32.57;;;11.10;;
18917;SDS011;9591;52.742;13.650;2023-12-07T14:41:07;31.83;;;12.47;;
18917;SDS011;9591;52.742;13.650;2023-12-07T14:43:54;26.83;;;10.93;;
18917;SDS011;9591;52.742;13.650;2023-12-07T14:46:42;35.70;;;12.70;;
18917;SDS011;9591;52.742;13.650;2023-12-07T14:49:30;34.47;;;11.37;;
18917;SDS011;9591;52.742;13.650;2023-12-07T14:52:17;32.47;;;11.37;;
18917;SDS011;9591;52.742;13.650;2023-12-07T14:55:05;38.17;;;11.40;;
18917;SDS011;9591;52.742;13.650;2023-12-07T14:57:53;36.00;;;12.27;;
18917;SDS011;9591;52.742;13.650;2023-12-07T15:00:41;34.40;;;12.53;;
18917;SDS011;9591;52.742;13.650;2023-12-07T15:03:29;39.97;;;13.77;;
18917;SDS011;9591;52.742;13.650;2023-12-07T15:06:17;30.80;;;11.87;;
18917;SDS011;9591;52.742;13.650;2023-12-07T15:09:04;35.03;;;11.83;;
18917;SDS011;9591;52.742;13.650;2023-12-07T15:11:52;31.07;;;12.20;;
18917;SDS011;9591;52.742;13.650;2023-12-07T15:14:40;34.60;;;12.17;;
18917;SDS011;9591;52.742;13.650;2023-12-07T15:17:27;36.73;;;11.93;;
18917;SDS011;9591;52.742;13.650;2023-12-07T15:20:14;34.83;;;11.80;;
18917;SDS011;9591;52.742;13.650;2023-12-07T15:23:02;34.13;;;12.30;;
18917;SDS011;9591;52.742;13.650;2023-12-07T15:25:49;32.17;;;11.30;;
18917;SDS011;9591;52.742;13.650;2023-12-07T15:28:36;33.03;;;12.20;;
18917;SDS011;9591;52.742;13.650;2023-12-07T15:31:24;35.73;;;11.50;;
18917;SDS011;9591;52.742;13.650;2023-12-07T15:34:11;31.47;;;11.83;;
18917;SDS011;9591;52.742;13.650;2023-12-07T15:37:13;35.40;;;12.60;;
18917;SDS011;9591;52.742;13.650;2023-12-07T15:40:01;34.90;;;12.13;;
18917;SDS011;9591;52.742;13.650;2023-12-07T15:42:49;31.97;;;13.53;;
18917;SDS011;9591;52.742;13.650;2023-12-07T15:45:36;38.30;;;13.17;;
18917;SDS011;9591;52.742;13.650;2023-12-07T15:48:23;34.73;;;12.13;;
18917;SDS011;9591;52.742;13.650;2023-12-07T15:51:10;32.67;;;12.00;;
18917;SDS011;9591;52.742;13.650;2023-12-07T15:53:57;38.37;;;11.77;;
18917;SDS011;9591;52.742;13.650;2023-12-07T15:56:46;33.17;;;12.37;;
18917;SDS011;9591;52.742;13.650;2023-12-07T15:59:33;31.97;;;12.03;;
18917;SDS011;9591;52.742;13.650;2023-12-07T16:02:20;33.60;;;11.83;;
18917;SDS011;9591;52.742;13.650;2023-12-07T16:05:07;36.60;;;11.67;;
18917;SDS011;9591;52.742;13.650;2023-12-07T16:07:53;26.07;;;11.43;;
18917;SDS011;9591;52.742;13.650;2023-12-07T16:10:40;39.63;;;12.43;;
18917;SDS011;9591;52.742;13.650;2023-12-07T16:13:29;28.00;;;10.97;;
18917;SDS011;9591;52.742;13.650;2023-12-07T16:16:15;28.70;;;11.53;;
18917;SDS011;9591;52.742;13.650;2023-12-07T16:19:02;35.40;;;12.70;;
18917;SDS011;9591;52.742;13.650;2023-12-07T16:21:50;33.90;;;11.87;;
18917;SDS011;9591;52.742;13.650;2023-12-07T16:24:37;30.03;;;11.83;;